Stations météo

réclame
Mon MeteoGroup
Hemavan-Skorvfjallet, Suède (2103): Température de l'air & dewpoint: 19.02.2018 06:00:00 - 25.02.2018 06:00:00 (CET)Hemavan-Skorvfjallet, Suède (2103): Vitesse du vent & gusts: 19.02.2018 06:00:00 - 25.02.2018 06:00:00 (CET)Hemavan-Skorvfjallet, Suède (2103): Direction du vent: 19.02.2018 06:00:00 - 25.02.2018 06:00:00 (CET)
Date & Time tt [°C] td [°C] ff [km/h] ff [knt] fx [km/h] fx [knt] dd
25.02.2018 06:00:00 -19,1 -20,9 35 19 48 26 ESE
25.02.2018 05:00:00 -19,2 -21,1 43 23 51 28 ESE
25.02.2018 04:00:00 -19,4 -21,3 45 24 53 28 ESE
25.02.2018 03:00:00 -19,0 -20,9 45 24 51 28 ESE
25.02.2018 02:00:00 -18,8 -20,7 41 22 52 28 ESE
25.02.2018 01:00:00 -17,8 -19,6 41 22 51 28 ESE
25.02.2018 00:00:00 -16,7 -18,4 38 21 45 24 ESE
24.02.2018 23:00:00 -16,6 -18,3 36 19 46 25 ESE
24.02.2018 22:00:00 -16,3 -17,8 41 22 51 28 ESE
24.02.2018 21:00:00 -16,4 -18,1 42 23 54 29 ESE
24.02.2018 20:00:00 -16,5 -18,2 44 24 55 30 ESE
24.02.2018 19:00:00 -17,1 -18,7 45 25 53 29 ESE
24.02.2018 18:00:00 -17,2 -18,8 44 24 54 29 ESE
24.02.2018 17:00:00 -16,8 -18,4 46 25 56 30 ESE
24.02.2018 16:00:00 -15,8 -17,3 45 25 56 31 ESE
24.02.2018 15:00:00 -15,5 -17,0 45 25 53 28 ESE
24.02.2018 14:00:00 -15,5 -17,0 38 20 44 24 ESE
24.02.2018 13:00:00 -15,4 -16,9 35 19 48 26 ESE
24.02.2018 12:00:00 -15,3 -16,8 39 21 51 27 E
24.02.2018 11:00:00 -15,3 -16,8 40 21 53 29 E
24.02.2018 10:00:00 -15,7 -17,2 46 25 56 31 ESE
24.02.2018 09:00:00 -15,7 -17,2 40 22 50 27 ESE
24.02.2018 08:00:00 -15,8 -17,3 34 19 41 22 ESE
24.02.2018 07:00:00 -15,8 -17,3 32 18 39 21 ESE
24.02.2018 06:00:00 -15,8 -17,3 30 16 37 20 ESE
24.02.2018 05:00:00 -15,7 -17,2 27 15 35 19 ESE
24.02.2018 04:00:00 -15,6 -17,1 24 13 35 19 ESE
24.02.2018 03:00:00 -15,5 -17,0 27 15 37 20 ESE
24.02.2018 02:00:00 -15,4 -16,9 27 15 41 22 ESE
24.02.2018 01:00:00 -15,2 -16,7 28 15 41 22 ESE
24.02.2018 00:00:00 -14,9 -16,3 35 19 41 22 ESE
23.02.2018 23:00:00 -14,5 -15,9 34 18 41 22 ESE
23.02.2018 22:00:00 -14,0 -15,4 32 17 41 22 ESE
23.02.2018 21:00:00 -13,6 -14,9 31 17 40 22 ESE
23.02.2018 20:00:00 -13,3 -14,6 31 17 39 21 ESE
23.02.2018 19:00:00 -13,0 -14,3 32 18 42 23 ESE
23.02.2018 18:00:00 -12,9 -14,1 32 17 39 21 ESE
23.02.2018 17:00:00 -12,7 -13,9 32 17 40 22 ESE
23.02.2018 16:00:00 -12,6 -13,8 35 19 44 24 ESE
23.02.2018 15:00:00 -12,5 -13,8 36 19 45 24 ESE
23.02.2018 14:00:00 -12,2 -13,4 33 18 41 22 ESE
23.02.2018 13:00:00 -12,3 -13,5 35 19 45 25 ESE
23.02.2018 12:00:00 -12,4 -13,6 40 22 52 28 ESE
23.02.2018 11:00:00 -12,4 -13,6 43 23 53 29 E
23.02.2018 10:00:00 -12,4 -13,6 44 24 53 28 ESE
23.02.2018 09:00:00 -12,4 -13,6 42 23 50 27 ESE
23.02.2018 08:00:00 -12,4 -13,6 39 21 47 25 ESE
23.02.2018 07:00:00 -12,4 -13,6 39 21 46 25 ESE
23.02.2018 06:00:00 -12,5 -13,7 37 20 49 26 ESE
23.02.2018 05:00:00 -12,6 -13,8 43 23 50 27 ESE
23.02.2018 04:00:00 -12,3 -13,5 39 21 46 25 ESE
23.02.2018 03:00:00 -11,8 -13,0 35 19 43 23 E
23.02.2018 02:00:00 -11,8 -13,0 24 13 32 18 ESE
23.02.2018 01:00:00 -11,7 -12,9 27 15 35 19 ESE
23.02.2018 00:00:00 -12,2 -13,4 28 15 42 23 ESE
22.02.2018 23:00:00 -12,2 -13,4 33 18 45 24 ESE
22.02.2018 22:00:00 -11,7 -12,9 33 18 41 22 ESE
22.02.2018 21:00:00 -11,3 -12,3 28 15 38 20 ESE
22.02.2018 20:00:00 -10,7 -11,7 28 15 39 21 ESE
22.02.2018 19:00:00 -9,4 -10,2 19 10 28 15 ESE
22.02.2018 18:00:00 -7,7 -8,4 3 2 5 3 ESE
22.02.2018 17:00:00 -7,7 -8,4 4 2 6 3 W
22.02.2018 16:00:00 -7,4 -8,1 4 2 7 4 NNE
22.02.2018 15:00:00 -8,0 -8,7 7 4 11 6 WSW
22.02.2018 14:00:00 -8,7 -9,5 9 5 10 5 SSW
22.02.2018 13:00:00 -8,0 -8,8 4 2 7 4 NNW
22.02.2018 12:00:00 -9,0 -9,9 4 2 9 5 WNW
22.02.2018 11:00:00 -9,6 -10,5 7 4 11 6 ESE
22.02.2018 10:00:00 -10,1 -11,1 6 3 10 6 ENE
22.02.2018 09:00:00 -10,3 -11,3 6 3 10 5 W
22.02.2018 08:00:00 -10,0 -10,9 4 2 12 6 N
22.02.2018 07:00:00 -10,1 -11,0 5 3 11 6 WSW
22.02.2018 06:00:00 -12,4 -13,6 7 4 10 6 WNW
22.02.2018 05:00:00 -13,5 -14,8 8 4 12 6 W
22.02.2018 04:00:00 -13,4 -14,7 4 2 8 4 WNW
22.02.2018 03:00:00 -14,7 -16,0 4 2 7 4 N
22.02.2018 02:00:00 -15,0 -16,5 4 2 6 4 NW
22.02.2018 01:00:00 -16,6 -18,3 1 1 6 4 NNW
22.02.2018 00:00:00 -16,3 -18,0 3 1 9 5 SW
21.02.2018 23:00:00 -17,1 -18,7 3 1 10 5 E
21.02.2018 22:00:00 -17,0 -18,6 9 5 10 5 ESE
21.02.2018 21:00:00 -16,5 -18,2 4 2 10 5 ESE
21.02.2018 20:00:00 -16,9 -18,5 9 5 12 6 ESE
21.02.2018 19:00:00 -17,1 -18,7 11 6 13 7 ESE
21.02.2018 18:00:00 -16,5 -18,2 11 6 14 8 ESE
21.02.2018 17:00:00 -16,4 -18,1 14 7 17 9 ESE
21.02.2018 16:00:00 -15,2 -16,7 14 8 22 12 ESE
21.02.2018 15:00:00 -15,0 -16,5 20 11 25 13 ESE
21.02.2018 14:00:00 -15,2 -16,7 22 12 26 14 ESE
21.02.2018 13:00:00 -15,3 -16,8 21 11 27 15 ESE
21.02.2018 12:00:00 -15,3 -16,8 21 12 29 16 ESE
21.02.2018 11:00:00 -16,2 -17,7 22 12 33 18 ESE
21.02.2018 10:00:00 -16,7 -18,4 26 14 32 17 ESE
21.02.2018 09:00:00 -17,0 -18,6 26 14 33 18 ESE
21.02.2018 08:00:00 -17,5 -19,1 26 14 31 17 ESE
21.02.2018 07:00:00 -17,3 -18,9 24 13 32 17 ESE
21.02.2018 06:00:00 -17,2 -18,8 24 13 33 18 ESE
21.02.2018 05:00:00 -16,8 -18,4 27 14 33 18 ESE
21.02.2018 04:00:00 -16,6 -18,3 24 13 32 18 ESE
21.02.2018 03:00:00 -16,6 -18,3 27 15 34 18 ESE
21.02.2018 02:00:00 -16,2 -17,7 25 13 33 18 ESE
21.02.2018 01:00:00 -15,9 -17,4 26 14 34 18 ESE
21.02.2018 00:00:00 -15,6 -17,1 25 13 32 18 ESE
20.02.2018 23:00:00 -15,1 -16,6 25 13 31 17 ESE
20.02.2018 22:00:00 -14,9 -16,3 23 13 34 18 ESE
20.02.2018 21:00:00 -14,9 -16,3 23 12 31 17 ESE
20.02.2018 20:00:00 -14,5 -15,9 23 12 28 15 ESE
20.02.2018 19:00:00 -14,1 -15,5 21 12 26 14 ESE
20.02.2018 18:00:00 -13,7 -15,0 19 10 34 18 ESE
20.02.2018 17:00:00 -13,2 -14,5 22 12 32 17 ESE
20.02.2018 16:00:00 -13,0 -14,3 27 15 32 17 ESE
20.02.2018 15:00:00 -12,9 -14,2 20 11 27 14 ESE
20.02.2018 14:00:00 -12,9 -14,2 20 11 24 13 ESE
20.02.2018 13:00:00 - - - - - - -
20.02.2018 12:00:00 -12,8 -14,1 17 9 22 12 ESE
20.02.2018 11:00:00 -13,2 -14,5 18 10 23 13 ESE
20.02.2018 10:00:00 -13,3 -14,6 18 10 22 12 ESE
20.02.2018 09:00:00 -13,2 -14,5 16 9 23 12 ESE
20.02.2018 08:00:00 -13,3 -14,6 18 10 22 12 ESE
20.02.2018 07:00:00 -13,7 -15,0 16 8 22 12 ESE
20.02.2018 06:00:00 -13,3 -14,6 18 10 20 11 ESE
20.02.2018 05:00:00 -13,4 -14,7 14 8 19 10 ESE
20.02.2018 04:00:00 -13,1 -14,4 13 7 19 11 ESE
20.02.2018 03:00:00 -12,4 -13,6 16 9 23 12 ESE
20.02.2018 02:00:00 -11,8 -13,0 19 10 27 15 ESE
20.02.2018 01:00:00 -11,6 -12,8 19 10 27 14 ESE
20.02.2018 00:00:00 -11,1 -12,1 15 8 26 14 ESE
19.02.2018 23:00:00 -11,0 -12,0 21 11 29 15 ESE
19.02.2018 22:00:00 -11,1 -12,1 17 9 21 11 ESE
19.02.2018 21:00:00 -11,0 -12,0 16 9 19 10 ESE
19.02.2018 20:00:00 -9,9 -10,8 14 8 17 9 ESE
19.02.2018 19:00:00 -9,4 -10,3 10 5 21 11 SE
19.02.2018 18:00:00 -9,3 -10,2 11 6 20 11 E
19.02.2018 17:00:00 -9,2 -10,0 15 8 20 11 ESE
19.02.2018 16:00:00 -9,1 -10,0 5 3 15 8 E
19.02.2018 15:00:00 -8,5 -9,3 10 6 19 10 E
19.02.2018 14:00:00 -8,1 -8,9 13 7 22 12 E
19.02.2018 13:00:00 -8,3 -9,1 9 5 19 10 E
19.02.2018 12:00:00 -8,0 -8,8 9 5 17 9 E
19.02.2018 11:00:00 -8,6 -9,4 14 8 20 11 E
19.02.2018 10:00:00 -8,5 -9,3 19 10 24 13 E
19.02.2018 09:00:00 -8,5 -9,3 18 10 29 16 ESE
19.02.2018 08:00:00 -8,4 -9,2 23 12 30 16 ESE
19.02.2018 07:00:00 -8,0 -8,7 23 12 29 16 ESE
19.02.2018 06:00:00 -7,9 -8,6 19 10 23 13 ESE

tt = Température de l'air
td = dewpoint
ff = Vitesse du vent
fx = gusts
dd = Direction du vent

stations d'obs. à proximité